Terminal Aerodrome Forecast
Issued by NWS

Home | Current Version | Previous Version | Text Only | Print | Product List | Glossary On
Versions: 1 2 3 4 5 6 7 8 9 10 11 12 13 14 15
000
FTUS43 KOAX 161100
TAFCDR
TAF
KCDR 161133Z 1612/1712 31016G26KT 5SM -RA BR BKN015 OVC025
     FM161600 33018G28KT P6SM VCSH BKN025 OVC035
      TEMPO 1616/1618 4SM -RASN BKN015
     FM162100 01012KT P6SM BKN035
     FM170200 VRB05KT P6SM BKN060
     FM170900 18009KT 4SM BR BKN015=

USA.gov is the U.S. government's official web portal to all federal, state and local government web resources and services.